Terminal Aerodrome Forecast
Issued by NWS Quad Cities IA IL

Home | Current Version | Previous Version | Text Only | Print | Product List | Glossary On
Versions: 1 2 3 4 5 6 7 8 9 10 11 12 13 14 15 16 17 18
000
FTUS43 KDVN 250805 AAB
TAFDBQ
TAF AMD
KDBQ 250805Z 2508/2606 18010KT 5SM SHRA BR BKN008 OVC035
     FM251100 22013KT 2SM -SHRA BR BKN006 OVC012
     FM251400 23017G25KT 6SM BR BKN025
     FM251700 22018G26KT P6SM BKN050=

USA.gov is the U.S. government's official web portal to all federal, state and local government web resources and services.